Time;durP1;ratioP1;P1;durP2;ratioP2;P2;SDS_P1;SDS_P2;PMS_P1;PMS_P2;Temp;Humidity;BMP_temperature;BMP_pressure;BME280_temperature;BME280_humidity;BME280_pressure;Samples;Min_cycle;Max_cycle;Signal;HPM_P1;HPM_P2
2023/04/11 00:02:00;;;;;;;47.20;29.70;;;;;;;4.79;68.30;99286.20;105364;1254;101917;-75
2023/04/11 00:04:29;;;;;;;60.80;34.10;;;;;;;4.73;68.40;99287.87;105331;1268;107793;-76
2023/04/11 00:06:57;;;;;;;56.00;32.70;;;;;;;4.70;68.40;99283.63;105498;1251;98015;-77
2023/04/11 00:09:25;;;;;;;54.40;32.30;;;;;;;4.72;68.43;99281.05;105401;1256;98437;-75
2023/04/11 00:11:53;;;;;;;51.20;29.90;;;;;;;4.74;68.47;99278.02;105222;1257;110847;-74
2023/04/11 00:14:21;;;;;;;50.40;28.50;;;;;;;4.71;68.59;99273.23;105196;1256;102238;-75
2023/04/11 00:16:52;;;;;;;47.70;29.90;;;;;;;4.68;68.65;99268.94;105368;1265;107384;-77
2023/04/11 00:19:22;;;;;;;47.20;29.20;;;;;;;4.67;68.59;99266.88;105249;1256;97937;-74
2023/04/11 00:21:50;;;;;;;68.90;27.60;;;;;;;4.69;68.67;99268.71;105405;1255;98427;-76
2023/04/11 00:24:18;;;;;;;74.40;30.70;;;;;;;4.68;68.76;99270.56;105511;1253;110798;-74
2023/04/11 00:26:46;;;;;;;82.90;28.10;;;;;;;4.67;68.84;99271.09;105453;1253;102261;-74
2023/04/11 00:29:14;;;;;;;69.20;27.90;;;;;;;4.66;68.82;99272.57;105417;1256;107737;-74
2023/04/11 00:31:42;;;;;;;56.60;27.20;;;;;;;4.63;68.72;99271.97;105435;1251;99183;-78
2023/04/11 00:34:10;;;;;;;49.30;27.10;;;;;;;4.58;68.72;99269.93;105207;1257;99269;-74
2023/04/11 00:36:40;;;;;;;44.90;28.80;;;;;;;4.57;68.83;99272.94;105227;1254;110843;-75
2023/04/11 00:39:08;;;;;;;42.50;26.90;;;;;;;4.52;68.78;99272.98;105365;1251;102251;-77
2023/04/11 00:41:36;;;;;;;41.80;25.70;;;;;;;4.48;68.78;99272.81;105215;1267;107790;-74
2023/04/11 00:44:05;;;;;;;39.70;25.20;;;;;;;4.46;68.82;99271.88;105415;1258;97928;-74
2023/04/11 00:46:34;;;;;;;38.30;22.50;;;;;;;4.44;68.92;99270.53;105387;1251;99167;-74
2023/04/11 00:49:02;;;;;;;37.90;23.40;;;;;;;4.39;68.70;99266.54;105308;1256;110721;-74
2023/04/11 00:51:30;;;;;;;36.30;21.40;;;;;;;4.38;68.86;99261.13;105468;1253;102319;-75
2023/04/11 00:54:00;;;;;;;33.40;20.40;;;;;;;4.37;68.95;99264.20;105427;1258;107621;-74
2023/04/11 00:56:28;;;;;;;37.40;21.80;;;;;;;4.34;68.99;99262.55;105638;1255;97930;-74
2023/04/11 00:58:56;;;;;;;35.40;20.90;;;;;;;4.33;68.98;99262.23;105492;1256;98515;-74
2023/04/11 01:01:24;;;;;;;34.60;21.70;;;;;;;4.30;68.93;99263.06;105397;1255;111185;-77
2023/04/11 01:03:52;;;;;;;33.00;21.40;;;;;;;4.28;69.00;99258.27;105347;1258;102289;-73
2023/04/11 01:06:22;;;;;;;34.40;20.60;;;;;;;4.24;68.89;99260.17;105354;1257;107582;-74
2023/04/11 01:08:50;;;;;;;37.70;21.90;;;;;;;4.21;69.07;99253.46;105413;1256;97961;-74
2023/04/11 01:11:19;;;;;;;33.20;21.10;;;;;;;4.21;69.11;99253.10;105463;1255;98741;-73
2023/04/11 01:13:48;;;;;;;55.20;25.60;;;;;;;4.25;69.23;99253.83;105641;1251;111872;-73
2023/04/11 01:16:20;;;;;;;105.70;26.70;;;;;;;4.28;69.36;99249.98;105331;1264;102346;-74
2023/04/11 01:18:48;;;;;;;98.30;26.70;;;;;;;4.32;69.53;99255.27;105410;1264;107782;-74
2023/04/11 01:21:18;;;;;;;94.10;27.00;;;;;;;4.38;69.60;99257.65;105443;1265;97941;-75
2023/04/11 01:23:51;;;;;;;114.20;28.20;;;;;;;4.43;69.60;99254.24;105276;1255;98441;-74
2023/04/11 01:26:19;;;;;;;97.90;27.40;;;;;;;4.52;69.63;99250.34;105360;1257;111222;-73
2023/04/11 01:28:47;;;;;;;117.10;26.20;;;;;;;4.57;69.77;99245.02;105526;1254;102180;-75
2023/04/11 01:31:15;;;;;;;148.50;30.00;;;;;;;4.65;69.77;99243.11;105167;1266;107228;-74
2023/04/11 01:33:43;;;;;;;117.00;27.80;;;;;;;4.71;69.77;99239.45;105364;1258;98035;-75
2023/04/11 01:36:11;;;;;;;139.40;30.30;;;;;;;4.74;69.80;99238.46;105447;1255;99275;-74
2023/04/11 01:38:39;;;;;;;95.90;26.80;;;;;;;4.73;69.78;99241.84;105117;1265;112587;-74
2023/04/11 01:41:09;;;;;;;97.90;27.60;;;;;;;4.69;69.63;99248.35;105361;1257;102662;-74
2023/04/11 01:43:37;;;;;;;90.00;28.30;;;;;;;4.65;69.75;99240.27;105412;1263;106120;-74
2023/04/11 01:46:06;;;;;;;70.40;29.00;;;;;;;4.65;69.83;99239.23;105366;1251;98025;-75
2023/04/11 01:48:34;;;;;;;60.20;27.10;;;;;;;4.64;69.79;99236.98;105150;1257;98459;-73
2023/04/11 01:51:02;;;;;;;46.30;27.20;;;;;;;4.60;69.83;99230.83;105110;1256;110742;-74
2023/04/11 01:53:30;;;;;;;46.40;27.50;;;;;;;4.55;69.83;99227.91;105760;1251;101901;-74
2023/04/11 01:55:58;;;;;;;46.40;26.80;;;;;;;4.54;69.89;99227.61;105083;1258;107767;-74
2023/04/11 01:58:26;;;;;;;49.00;26.70;;;;;;;4.53;69.84;99226.75;105446;1257;97951;-74
2023/04/11 02:00:54;;;;;;;57.40;29.40;;;;;;;4.53;69.84;99226.22;105609;1251;98402;-74
2023/04/11 02:03:22;;;;;;;60.30;27.50;;;;;;;4.53;69.83;99227.81;105493;1256;109831;-75
2023/04/11 02:05:50;;;;;;;65.70;28.10;;;;;;;4.50;69.87;99228.80;105348;1258;100419;-74
2023/04/11 02:08:18;;;;;;;52.00;26.20;;;;;;;4.44;69.84;99226.12;105488;1257;106796;-74
2023/04/11 02:10:46;;;;;;;46.60;25.90;;;;;;;4.39;69.98;99226.84;105364;1258;99278;-74
2023/04/11 02:13:14;;;;;;;45.10;24.60;;;;;;;4.37;70.00;99220.83;105430;1251;99292;-75
2023/04/11 02:15:42;;;;;;;43.30;25.10;;;;;;;4.34;70.09;99220.04;105216;1274;110872;-76
2023/04/11 02:18:10;;;;;;;39.60;23.50;;;;;;;4.35;70.13;99223.52;105580;1251;101946;-74
2023/04/11 02:20:40;;;;;;;35.90;22.50;;;;;;;4.42;70.32;99215.84;105383;1263;107693;-75
2023/04/11 02:23:08;;;;;;;34.80;21.60;;;;;;;4.52;70.56;99209.27;105230;1257;97967;-74
2023/04/11 02:25:37;;;;;;;33.40;21.90;;;;;;;4.63;70.55;99201.38;105173;1257;98418;-75
2023/04/11 02:28:05;;;;;;;35.50;20.90;;;;;;;4.75;70.75;99200.30;105414;1257;110937;-76
2023/04/11 02:30:35;;;;;;;34.90;20.70;;;;;;;4.85;70.88;99197.02;105206;1256;102239;-75
2023/04/11 02:33:03;;;;;;;33.50;21.40;;;;;;;4.96;70.96;99192.13;105414;1251;107645;-74
2023/04/11 02:35:31;;;;;;;33.20;18.90;;;;;;;5.03;70.80;99191.94;105189;1256;97934;-75
2023/04/11 02:37:59;;;;;;;31.80;18.70;;;;;;;5.12;70.94;99187.11;105401;1256;97886;-75
2023/04/11 02:40:27;;;;;;;33.80;21.10;;;;;;;5.20;70.91;99180.23;105511;1254;111239;-74
2023/04/11 02:42:55;;;;;;;33.10;20.10;;;;;;;5.27;71.00;99177.30;105488;1258;102323;-76
2023/04/11 02:45:23;;;;;;;33.60;19.90;;;;;;;5.31;71.02;99178.83;105575;1265;107606;-74
2023/04/11 02:47:51;;;;;;;32.20;19.40;;;;;;;5.36;71.07;99175.77;105214;1257;98719;-74
2023/04/11 02:50:19;;;;;;;35.30;19.60;;;;;;;5.42;71.03;99175.11;105274;1254;98495;-75
2023/04/11 02:52:48;;;;;;;33.60;20.20;;;;;;;5.48;71.07;99174.66;105361;1256;110881;-73
2023/04/11 02:55:16;;;;;;;36.50;21.30;;;;;;;5.54;70.83;99175.77;105402;1257;102221;-75
2023/04/11 02:57:43;;;;;;;35.60;21.30;;;;;;;5.54;70.68;99174.90;105429;1251;106357;-74
2023/04/11 03:00:11;;;;;;;34.40;19.40;;;;;;;5.51;70.80;99176.08;105176;1256;97961;-74
2023/04/11 03:02:40;;;;;;;35.30;22.30;;;;;;;5.47;70.76;99176.98;105493;1251;98046;-75
2023/04/11 03:05:09;;;;;;;33.80;20.10;;;;;;;5.44;70.73;99177.33;105350;1251;111112;-77
2023/04/11 03:07:37;;;;;;;38.10;23.70;;;;;;;5.41;70.62;99172.20;105323;1273;101950;-73
2023/04/11 03:10:06;;;;;;;36.40;21.60;;;;;;;5.37;70.59;99172.21;105454;1251;107939;-74
2023/04/11 03:12:33;;;;;;;36.50;22.20;;;;;;;5.36;70.79;99164.16;105361;1251;98005;-74
2023/04/11 03:15:01;;;;;;;35.90;22.40;;;;;;;5.37;70.76;99164.30;105581;1250;98373;-73
2023/04/11 03:17:32;;;;;;;37.60;23.50;;;;;;;5.41;70.80;99165.33;105213;1257;109236;-74
2023/04/11 03:20:01;;;;;;;36.60;21.50;;;;;;;5.44;70.96;99161.69;105129;1251;102253;-75
2023/04/11 03:22:29;;;;;;;38.20;22.40;;;;;;;5.44;71.03;99156.94;105369;1256;107195;-73
2023/04/11 03:24:56;;;;;;;36.80;21.60;;;;;;;5.47;71.20;99161.54;105290;1257;98079;-74
2023/04/11 03:27:25;;;;;;;37.70;22.50;;;;;;;5.48;71.09;99161.46;105404;1257;98529;-75
2023/04/11 03:29:53;;;;;;;35.50;19.30;;;;;;;5.49;71.11;99157.55;105273;1255;109552;-78
2023/04/11 03:32:21;;;;;;;46.30;18.70;;;;;;;5.53;71.37;99158.05;105261;1256;103284;-74
2023/04/11 03:34:50;;;;;;;50.90;18.50;;;;;;;5.59;71.33;99155.82;105263;1255;107620;-74
2023/04/11 03:37:18;;;;;;;47.60;16.90;;;;;;;5.64;71.27;99149.77;105302;1256;99166;-74
2023/04/11 03:39:45;;;;;;;43.60;17.00;;;;;;;5.69;71.35;99147.75;105229;1257;99770;-74
2023/04/11 03:42:13;;;;;;;41.90;16.50;;;;;;;5.73;71.41;99150.50;105385;1267;111326;-74
2023/04/11 03:44:41;;;;;;;53.90;16.10;;;;;;;5.77;71.40;99143.96;105304;1263;102434;-74
2023/04/11 03:47:09;;;;;;;43.30;14.50;;;;;;;5.81;71.49;99141.66;105073;1274;107613;-74
2023/04/11 03:49:37;;;;;;;36.80;13.70;;;;;;;5.84;71.36;99147.00;105470;1256;97894;-74
2023/04/11 03:52:06;;;;;;;37.80;13.10;;;;;;;5.84;71.47;99151.91;105149;1258;98454;-74
2023/04/11 03:54:34;;;;;;;41.90;14.50;;;;;;;5.84;71.42;99152.97;105555;1251;111334;-76
2023/04/11 03:57:02;;;;;;;35.90;13.80;;;;;;;5.85;71.54;99148.88;105229;1251;102240;-75
2023/04/11 03:59:30;;;;;;;34.30;13.40;;;;;;;5.85;71.55;99143.05;105122;1256;107665;-74
2023/04/11 04:01:58;;;;;;;41.10;14.00;;;;;;;5.88;71.59;99137.64;105443;1257;97953;-75
2023/04/11 04:04:27;;;;;;;36.40;14.40;;;;;;;5.88;71.63;99133.75;105414;1251;97948;-75
2023/04/11 04:06:55;;;;;;;33.10;13.30;;;;;;;5.89;71.65;99128.79;105325;1256;110728;-74
2023/04/11 04:09:24;;;;;;;28.60;13.20;;;;;;;5.92;71.79;99131.60;105210;1255;101918;-74
2023/04/11 04:11:51;;;;;;;25.50;11.90;;;;;;;5.94;71.68;99129.94;105329;1258;108725;-74
2023/04/11 04:14:20;;;;;;;29.30;11.40;;;;;;;5.94;71.79;99125.48;105286;1254;97934;-73
2023/04/11 04:16:48;;;;;;;23.30;11.10;;;;;;;5.94;71.60;99126.39;105474;1257;99294;-74
2023/04/11 04:19:16;;;;;;;25.90;10.90;;;;;;;5.94;71.58;99131.35;105453;1256;111337;-74
2023/04/11 04:21:44;;;;;;;22.10;9.70;;;;;;;5.93;71.56;99133.12;105236;1257;102205;-74
2023/04/11 04:24:12;;;;;;;24.10;9.30;;;;;;;5.95;71.82;99130.95;105363;1267;107600;-74
2023/04/11 04:26:40;;;;;;;20.60;9.10;;;;;;;5.95;71.89;99132.13;105172;1257;99300;-76
2023/04/11 04:29:11;;;;;;;22.90;10.00;;;;;;;5.98;72.01;99128.48;105454;1254;98443;-74
2023/04/11 04:31:39;;;;;;;24.60;9.70;;;;;;;6.00;71.81;99122.77;105428;1256;111371;-74
2023/04/11 04:34:08;;;;;;;22.20;10.00;;;;;;;6.02;71.99;99124.27;105364;1255;101833;-74
2023/04/11 04:36:46;;;;;;;22.70;10.70;;;;;;;6.04;71.93;99128.00;105380;1256;106721;-76
2023/04/11 04:39:18;;;;;;;24.10;10.70;;;;;;;6.07;71.87;99130.52;105139;1251;99323;-76
2023/04/11 04:41:48;;;;;;;24.30;10.90;;;;;;;6.08;72.07;99131.68;105433;1256;98359;-74
2023/04/11 04:44:16;;;;;;;23.60;10.00;;;;;;;6.09;72.04;99124.92;105273;1255;110866;-74
2023/04/11 04:46:44;;;;;;;22.90;10.20;;;;;;;6.11;72.05;99126.92;105448;1256;101198;-77
2023/04/11 04:49:12;;;;;;;18.00;7.60;;;;;;;6.15;72.05;99131.48;105237;1252;107204;-74
2023/04/11 04:51:39;;;;;;;14.50;6.70;;;;;;;6.15;71.95;99136.95;105371;1268;98601;-73
2023/04/11 04:54:08;;;;;;;18.40;7.60;;;;;;;6.16;71.79;99136.89;106905;1251;97954;-73
2023/04/11 04:56:37;;;;;;;18.00;7.40;;;;;;;6.17;71.74;99135.95;108739;1251;111690;-74
2023/04/11 04:59:05;;;;;;;15.50;6.70;;;;;;;6.18;71.84;99135.74;108789;1251;101535;-74
2023/04/11 05:01:33;;;;;;;17.80;8.10;;;;;;;6.19;71.92;99134.09;105973;1251;107170;-74
2023/04/11 05:04:02;;;;;;;19.80;7.60;;;;;;;6.24;72.06;99133.27;105481;1251;97965;-74
2023/04/11 05:06:31;;;;;;;19.80;7.90;;;;;;;6.29;72.02;99128.98;105597;1254;98422;-74
2023/04/11 05:09:03;;;;;;;22.00;9.40;;;;;;;6.32;72.21;99128.80;105416;1253;111298;-76
2023/04/11 05:11:33;;;;;;;18.60;8.30;;;;;;;6.37;72.16;99124.30;105372;1251;100986;-74
2023/04/11 05:14:01;;;;;;;20.80;8.60;;;;;;;6.41;72.15;99124.11;105282;1267;107608;-73
2023/04/11 05:16:28;;;;;;;20.70;8.50;;;;;;;6.46;72.16;99126.85;105302;1257;99265;-74
2023/04/11 05:18:56;;;;;;;22.70;9.70;;;;;;;6.51;72.11;99129.73;105196;1256;99161;-75
2023/04/11 05:21:25;;;;;;;20.60;8.90;;;;;;;6.56;72.35;99127.50;105608;1256;111931;-74
2023/04/11 05:23:54;;;;;;;18.60;8.40;;;;;;;6.61;72.33;99124.42;105381;1255;102700;-75
2023/04/11 05:26:22;;;;;;;19.80;8.40;;;;;;;6.66;72.38;99125.42;105407;1257;106300;-75
2023/04/11 05:28:50;;;;;;;19.00;8.40;;;;;;;6.70;72.50;99129.07;105491;1257;98340;-77
2023/04/11 05:31:18;;;;;;;19.60;8.30;;;;;;;6.75;72.33;99127.72;105549;1256;98887;-74
2023/04/11 05:33:46;;;;;;;19.00;8.70;;;;;;;6.79;72.40;99123.41;105382;1256;110716;-74
2023/04/11 05:36:33;;;;;;;19.20;8.50;;;;;;;6.85;72.51;99118.36;105488;1251;102019;-78
2023/04/11 05:39:02;;;;;;;19.30;8.10;;;;;;;6.92;72.60;99118.13;105247;1267;107644;-74
2023/04/11 05:41:31;;;;;;;20.00;8.50;;;;;;;6.99;72.42;99117.21;105376;1256;99271;-75
2023/04/11 05:43:58;;;;;;;20.60;9.90;;;;;;;7.05;72.80;99117.55;105492;1254;98534;-74
2023/04/11 05:46:28;;;;;;;21.80;8.90;;;;;;;7.13;72.79;99118.90;105481;1253;110709;-75
2023/04/11 05:48:59;;;;;;;23.40;9.60;;;;;;;7.22;72.76;99117.33;105503;1256;100302;-78
2023/04/11 05:51:28;;;;;;;19.90;9.20;;;;;;;7.28;72.76;99113.59;105204;1256;107498;-75
2023/04/11 05:53:56;;;;;;;22.20;10.20;;;;;;;7.36;72.65;99110.31;105179;1256;98008;-77
2023/04/11 05:56:24;;;;;;;20.40;10.00;;;;;;;7.42;72.67;99110.99;105651;1255;98436;-74
2023/04/11 05:58:52;;;;;;;22.50;9.20;;;;;;;7.49;72.85;99106.27;105341;1261;110990;-74
2023/04/11 06:01:21;;;;;;;20.70;9.50;;;;;;;7.56;72.81;99106.88;105183;1265;101961;-76
2023/04/11 06:03:48;;;;;;;24.20;11.00;;;;;;;7.58;72.58;99103.20;105279;1256;107685;-76
2023/04/11 06:06:17;;;;;;;22.40;11.20;;;;;;;7.59;72.64;99096.40;105377;1256;97931;-75
2023/04/11 06:08:46;;;;;;;22.20;10.40;;;;;;;7.64;72.71;99095.13;105478;1250;98427;-74
2023/04/11 06:11:13;;;;;;;22.90;10.90;;;;;;;7.63;72.62;99091.61;105433;1253;111394;-78
2023/04/11 06:13:41;;;;;;;22.50;10.80;;;;;;;7.61;72.70;99094.05;105303;1251;101891;-75
2023/04/11 06:16:09;;;;;;;22.90;12.10;;;;;;;7.63;72.75;99096.03;105478;1256;107607;-72
2023/04/11 06:18:37;;;;;;;25.80;13.30;;;;;;;7.66;72.92;99096.41;105444;1251;98017;-73
2023/04/11 06:21:05;;;;;;;25.00;13.30;;;;;;;7.68;72.79;99098.04;105427;1251;98462;-72
2023/04/11 06:23:33;;;;;;;27.60;14.80;;;;;;;7.71;72.87;99096.26;105551;1252;111233;-74
2023/04/11 06:26:02;;;;;;;27.50;15.40;;;;;;;7.74;72.74;99095.58;106135;1254;102221;-73
2023/04/11 06:28:29;;;;;;;29.00;15.80;;;;;;;7.76;72.78;99095.77;106173;1253;107700;-72
2023/04/11 06:30:57;;;;;;;31.40;18.10;;;;;;;7.80;72.91;99090.60;105414;1257;97951;-72
2023/04/11 06:33:25;;;;;;;32.90;19.80;;;;;;;7.86;72.99;99091.80;105458;1253;98431;-73
2023/04/11 06:35:54;;;;;;;34.60;19.10;;;;;;;7.97;72.97;99084.66;105473;1253;111206;-73
2023/04/11 06:38:22;;;;;;;29.70;16.60;;;;;;;8.03;73.01;99083.36;105421;1257;103531;-73
2023/04/11 06:40:51;;;;;;;28.30;16.00;;;;;;;8.07;72.88;99077.48;108637;1251;107295;-71
2023/04/11 06:43:19;;;;;;;28.00;16.50;;;;;;;8.13;72.88;99079.04;106682;1251;97939;-72
2023/04/11 06:45:48;;;;;;;28.70;16.50;;;;;;;8.17;72.63;99078.61;105354;1251;98444;-71
2023/04/11 06:48:16;;;;;;;31.10;18.70;;;;;;;8.20;73.05;99080.20;106229;1255;110978;-73
2023/04/11 06:50:45;;;;;;;31.20;17.60;;;;;;;8.26;73.19;99074.88;105579;1256;101622;-74
2023/04/11 06:53:14;;;;;;;29.00;16.00;;;;;;;8.33;72.96;99073.21;105497;1251;107096;-73
2023/04/11 06:55:41;;;;;;;29.80;18.20;;;;;;;8.32;72.91;99073.13;105263;1254;97931;-72
2023/04/11 06:58:09;;;;;;;29.10;17.50;;;;;;;8.32;73.06;99070.46;105410;1253;98436;-72
2023/04/11 07:00:37;;;;;;;29.50;17.90;;;;;;;8.36;73.04;99069.67;105371;1254;110706;-72
2023/04/11 07:03:07;;;;;;;28.60;17.60;;;;;;;8.40;73.07;99068.35;105374;1252;102229;-75
2023/04/11 07:05:36;;;;;;;30.30;19.30;;;;;;;8.44;73.02;99070.55;105421;1256;107690;-72
2023/04/11 07:08:06;;;;;;;28.40;17.40;;;;;;;8.48;73.13;99067.86;105548;1252;99260;-72
2023/04/11 07:10:34;;;;;;;31.00;18.90;;;;;;;8.54;73.04;99065.23;105505;1251;97874;-71
2023/04/11 07:13:01;;;;;;;28.30;18.30;;;;;;;8.60;73.08;99065.48;105481;1251;111182;-72
2023/04/11 07:15:29;;;;;;;32.10;20.20;;;;;;;8.64;73.16;99064.88;105388;1251;101997;-69
2023/04/11 07:17:58;;;;;;;28.70;18.40;;;;;;;8.71;73.20;99063.41;105298;1254;107594;-72
2023/04/11 07:20:26;;;;;;;29.40;18.70;;;;;;;8.78;73.18;99060.99;105388;1251;99262;-72
2023/04/11 07:22:55;;;;;;;29.50;18.60;;;;;;;8.88;73.17;99064.05;105205;1256;98408;-74
2023/04/11 07:25:29;;;;;;;30.20;19.30;;;;;;;8.96;73.26;99057.73;105379;1255;111258;-73
2023/04/11 07:27:59;;;;;;;29.40;17.90;;;;;;;9.05;73.22;99054.81;105470;1256;102145;-72
2023/04/11 07:30:27;;;;;;;24.90;14.80;;;;;;;9.15;73.20;99056.13;105320;1251;107438;-73
2023/04/11 07:32:55;;;;;;;23.70;14.30;;;;;;;9.27;73.18;99053.04;105160;1256;98862;-72
2023/04/11 07:35:23;;;;;;;23.70;13.70;;;;;;;9.40;73.24;99050.73;105508;1252;99768;-75
2023/04/11 07:37:52;;;;;;;24.60;14.20;;;;;;;9.51;73.29;99050.32;105114;1256;110700;-72
2023/04/11 07:40:20;;;;;;;25.20;15.40;;;;;;;9.59;73.16;99054.05;105378;1253;102454;-74
2023/04/11 07:42:48;;;;;;;23.50;14.60;;;;;;;9.60;73.15;99051.46;105370;1274;106849;-72
2023/04/11 07:45:16;;;;;;;23.90;13.90;;;;;;;9.62;73.05;99053.45;105449;1254;99225;-73
2023/04/11 07:47:44;;;;;;;24.90;15.00;;;;;;;9.63;73.03;99048.08;105349;1251;98434;-73
2023/04/11 07:50:12;;;;;;;25.10;14.10;;;;;;;9.69;73.18;99049.28;105330;1253;110738;-72
2023/04/11 07:52:40;;;;;;;23.20;13.50;;;;;;;9.78;73.15;99044.41;105359;1251;101927;-72
2023/04/11 07:55:11;;;;;;;23.90;13.20;;;;;;;9.84;73.13;99037.45;105405;1256;107653;-72
2023/04/11 07:57:39;;;;;;;22.50;13.10;;;;;;;9.94;73.28;99031.94;105117;1268;99267;-72
2023/04/11 08:00:09;;;;;;;22.10;12.70;;;;;;;10.07;73.28;99035.15;105386;1255;98429;-72
2023/04/11 08:02:41;;;;;;;21.70;12.00;;;;;;;10.14;73.22;99033.09;105342;1253;110395;-72
2023/04/11 08:05:09;;;;;;;22.70;12.70;;;;;;;10.22;73.16;99032.30;105350;1256;102081;-72
2023/04/11 08:07:38;;;;;;;22.30;12.40;;;;;;;10.28;73.21;99026.38;105325;1274;108932;-73
2023/04/11 08:10:07;;;;;;;21.40;12.10;;;;;;;10.36;73.23;99021.59;105284;1273;99181;-74
2023/04/11 08:12:36;;;;;;;21.60;11.50;;;;;;;10.43;73.17;99015.95;105321;1251;99750;-72
2023/04/11 08:15:04;;;;;;;22.70;12.50;;;;;;;10.49;73.17;99008.60;105216;1270;110935;-72
2023/04/11 08:17:36;;;;;;;22.50;11.90;;;;;;;10.52;73.08;99004.16;105259;1255;100498;-72
2023/04/11 08:20:07;;;;;;;22.70;11.40;;;;;;;10.53;73.03;99000.30;105289;1258;107653;-71
2023/04/11 08:22:43;;;;;;;21.50;12.40;;;;;;;10.55;73.08;98996.27;105201;1252;99326;-74
2023/04/11 08:25:13;;;;;;;22.50;12.80;;;;;;;10.64;73.18;98990.13;105025;1255;99803;-72
2023/04/11 08:27:41;;;;;;;23.30;12.90;;;;;;;10.77;73.18;98983.85;105398;1253;111300;-75
2023/04/11 08:30:09;;;;;;;23.30;13.30;;;;;;;10.93;73.33;98977.70;105169;1256;101870;-72
2023/04/11 08:32:37;;;;;;;22.70;12.50;;;;;;;11.06;73.04;98969.55;105130;1251;109108;-73
2023/04/11 08:35:06;;;;;;;26.40;16.10;;;;;;;11.08;72.89;98961.47;105350;1254;98049;-76
2023/04/11 08:37:34;;;;;;;25.90;14.30;;;;;;;11.15;72.98;98957.20;105300;1266;99245;-72
2023/04/11 08:40:05;;;;;;;29.60;16.20;;;;;;;11.15;72.92;98950.25;105244;1256;111190;-77
2023/04/11 08:42:34;;;;;;;27.60;15.00;;;;;;;11.15;72.94;98944.80;105426;1254;102206;-75
2023/04/11 08:45:07;;;;;;;22.90;13.10;;;;;;;11.25;73.19;98941.86;105262;1256;107984;-72
2023/04/11 08:47:47;;;;;;;23.30;13.40;;;;;;;11.38;73.25;98931.83;105350;1251;98484;-72
2023/04/11 08:50:16;;;;;;;25.00;13.30;;;;;;;11.49;73.15;98925.32;105214;1258;99709;-75
2023/04/11 08:52:47;;;;;;;21.50;11.50;;;;;;;11.58;73.05;98923.73;105159;1256;112107;-73
2023/04/11 08:55:15;;;;;;;23.80;13.00;;;;;;;11.51;72.79;98919.78;105219;1256;101914;-75
2023/04/11 08:57:43;;;;;;;20.50;11.50;;;;;;;11.43;72.70;98913.14;105148;1258;107698;-72
2023/04/11 09:00:17;;;;;;;23.10;13.40;;;;;;;11.37;72.57;98913.80;105384;1256;99256;-73
2023/04/11 09:03:04;;;;;;;24.90;12.70;;;;;;;11.25;72.56;98906.63;107691;1253;97383;-71
2023/04/11 09:05:34;;;;;;;23.30;13.10;;;;;;;11.20;72.68;98903.44;105626;1251;110044;-71
2023/04/11 09:08:07;;;;;;;21.80;11.40;;;;;;;11.17;72.71;98900.81;105446;1255;280437;-73
2023/04/11 09:10:37;;;;;;;24.30;13.00;;;;;;;11.10;72.62;98889.27;105650;1251;107583;-74
2023/04/11 09:13:27;;;;;;;25.40;13.90;;;;;;;11.10;72.66;98884.81;106696;1256;97922;-73
2023/04/11 09:16:03;;;;;;;21.40;12.50;;;;;;;10.97;72.65;98880.34;105473;1254;98331;-71
2023/04/11 09:18:32;;;;;;;22.50;12.00;;;;;;;10.78;72.52;98880.02;105892;1252;111943;-72
2023/04/11 09:21:03;;;;;;;22.80;12.00;;;;;;;10.67;72.78;98875.52;105493;1255;102825;-71
2023/04/11 09:23:31;;;;;;;22.30;12.70;;;;;;;10.72;72.84;98874.46;105331;1251;107195;-73
2023/04/11 09:26:00;;;;;;;21.30;11.50;;;;;;;10.82;72.78;98873.52;105650;1256;97948;-72
2023/04/11 09:28:39;;;;;;;21.80;11.60;;;;;;;10.78;72.55;98870.14;105565;1257;98687;-73
2023/04/11 09:31:08;;;;;;;24.80;14.30;;;;;;;10.73;72.64;98870.95;105544;1252;110380;-72
2023/04/11 09:33:35;;;;;;;22.10;11.70;;;;;;;10.82;72.87;98865.66;105310;1256;102006;-73
2023/04/11 09:36:18;;;;;;;22.40;11.90;;;;;;;10.87;72.56;98873.65;105405;1251;107179;-72
2023/04/11 09:38:46;;;;;;;24.00;13.30;;;;;;;10.94;72.65;98869.20;105324;1256;98027;-75
2023/04/11 09:41:15;;;;;;;24.00;12.90;;;;;;;11.04;72.68;98872.67;105180;1256;98864;-72
2023/04/11 09:43:50;;;;;;;22.20;12.30;;;;;;;11.15;72.79;98871.70;105257;1256;110791;-71
2023/04/11 09:46:19;;;;;;;24.10;13.60;;;;;;;11.25;72.77;98868.75;105439;1256;102077;-73
2023/04/11 09:48:53;;;;;;;23.90;13.50;;;;;;;11.39;72.86;98862.01;105474;1251;107599;-74
2023/04/11 09:51:22;;;;;;;23.70;13.30;;;;;;;11.50;72.80;98859.52;105047;1258;98015;-72
2023/04/11 09:53:54;;;;;;;22.80;12.80;;;;;;;11.59;72.48;98859.36;105555;1254;98393;-71
2023/04/11 09:56:25;;;;;;;21.90;12.60;;;;;;;11.56;72.25;98850.38;105363;1253;112156;-73
2023/04/11 09:58:56;;;;;;;23.20;13.40;;;;;;;11.59;72.24;98853.16;105337;1256;102219;-75
2023/04/11 10:01:24;;;;;;;21.70;12.80;;;;;;;11.61;72.34;98849.35;105430;1251;107626;-73
2023/04/11 10:03:54;;;;;;;21.70;12.00;;;;;;;11.68;72.64;98838.36;105334;1256;98030;-72
2023/04/11 10:06:33;;;;;;;22.60;12.60;;;;;;;11.81;72.57;98838.27;105193;1256;98441;-74
2023/04/11 10:09:10;;;;;;;22.60;11.90;;;;;;;11.87;72.47;98832.89;105058;1257;110710;-72
2023/04/11 10:11:42;;;;;;;23.70;12.60;;;;;;;11.93;72.52;98825.33;105174;1251;102286;-73
2023/04/11 10:14:36;;;;;;;24.20;13.50;;;;;;;11.96;72.35;98821.96;105206;1258;107604;-75
2023/04/11 10:17:12;;;;;;;23.10;14.00;;;;;;;11.93;72.35;98822.73;105491;1255;99256;-72
2023/04/11 10:19:42;;;;;;;24.90;13.40;;;;;;;11.91;72.37;98813.80;105386;1253;99723;-72
2023/04/11 10:22:39;;;;;;;25.50;13.80;;;;;;;12.07;72.62;98807.70;105424;1251;110965;-73
2023/04/11 10:25:18;;;;;;;24.20;14.30;;;;;;;12.14;72.16;98807.14;105429;1253;105231;-72
2023/04/11 10:28:00;;;;;;;22.70;13.80;;;;;;;12.10;72.05;98806.39;105342;1256;107234;-72
2023/04/11 10:30:40;;;;;;;23.20;13.70;;;;;;;12.06;71.90;98801.20;105265;1255;97932;-72
2023/04/11 10:33:09;;;;;;;21.90;12.80;;;;;;;12.00;71.92;98806.36;105286;1256;98375;-72
2023/04/11 10:35:58;;;;;;;26.10;14.00;;;;;;;11.81;71.80;98805.17;105393;1256;111735;-72
2023/04/11 10:38:35;;;;;;;23.20;13.10;;;;;;;11.69;71.80;98799.77;105233;1258;102254;-72
2023/04/11 10:41:17;;;;;;;22.20;12.60;;;;;;;11.60;71.66;98794.95;105160;1267;107672;-74
2023/04/11 10:43:48;;;;;;;22.60;13.20;;;;;;;11.45;71.66;98784.80;105469;1251;98025;-72
2023/04/11 10:46:24;;;;;;;21.20;12.20;;;;;;;11.32;71.64;98776.93;105243;1252;98418;-73
2023/04/11 10:48:58;;;;;;;21.60;11.70;;;;;;;11.18;71.60;98769.06;105236;1256;111392;-72
2023/04/11 10:51:30;;;;;;;23.00;12.30;;;;;;;11.10;71.69;98764.70;105335;1252;101921;-72
2023/04/11 10:53:59;;;;;;;23.90;12.20;;;;;;;11.03;71.81;98753.02;105322;1255;107429;-75
2023/04/11 10:56:44;;;;;;;22.10;11.70;;;;;;;11.00;71.89;98746.65;105385;1256;98031;-73
2023/04/11 10:59:31;;;;;;;;;;;;;;;11.00;72.02;98734.60;105195;1256;98885;-72
2023/04/11 11:02:02;;;;;;;23.90;12.30;;;;;;;11.02;71.95;98733.58;105168;1253;111079;-72
2023/04/11 11:04:35;;;;;;;21.60;11.20;;;;;;;11.09;71.93;98728.39;105173;1254;102217;-75
2023/04/11 11:07:06;;;;;;;20.60;11.10;;;;;;;11.14;71.77;98721.05;105270;1259;106039;-72
2023/04/11 11:09:34;;;;;;;21.30;11.30;;;;;;;11.30;71.86;98716.80;105169;1251;99166;-73
2023/04/11 11:12:07;;;;;;;21.30;10.90;;;;;;;11.45;71.84;98716.23;105372;1256;99896;-73
2023/04/11 11:14:36;;;;;;;22.70;12.70;;;;;;;11.66;72.09;98722.60;105297;1252;111294;-71
2023/04/11 11:17:05;;;;;;;23.50;13.00;;;;;;;12.00;72.12;98726.70;105380;1253;102254;-71
2023/04/11 11:19:34;;;;;;;23.10;13.70;;;;;;;12.27;71.86;98727.45;105349;1267;107283;-72
2023/04/11 11:22:13;;;;;;;22.00;12.30;;;;;;;12.29;71.69;98732.33;105276;1257;98734;-73
2023/04/11 11:24:41;;;;;;;22.20;12.60;;;;;;;12.24;71.29;98725.02;105117;1253;98431;-73